createdAt,value
2023-03-18T00:03:48.783Z,18.93
2023-03-18T00:08:52.572Z,16.43
2023-03-18T00:13:55.634Z,19.10
2023-03-18T00:18:58.489Z,18.63
2023-03-18T00:24:01.800Z,17.17
2023-03-18T00:29:04.896Z,19.80
2023-03-18T00:34:08.374Z,22.07
2023-03-18T00:39:13.320Z,25.83
2023-03-18T00:44:16.344Z,26.60
2023-03-18T00:49:19.925Z,23.93
2023-03-18T00:54:24.783Z,23.77
2023-03-18T00:59:27.877Z,55.73
2023-03-18T01:04:31.302Z,41.27
2023-03-18T01:09:34.468Z,23.87
2023-03-18T01:14:39.671Z,33.37
2023-03-18T01:19:43.725Z,15.80
2023-03-18T01:24:47.197Z,14.20
2023-03-18T01:29:50.221Z,17.03
2023-03-18T01:34:53.129Z,15.67
2023-03-18T01:39:56.135Z,11.17
2023-03-18T01:45:24.763Z,14.43
2023-03-18T01:50:37.968Z,12.93
2023-03-18T01:55:42.412Z,11.07
2023-03-18T02:00:54.683Z,14.00
2023-03-18T02:05:57.884Z,11.60
2023-03-18T02:11:02.382Z,9.27
2023-03-18T02:16:13.817Z,8.90
2023-03-18T02:21:33.403Z,11.60
2023-03-18T02:26:59.044Z,12.83
2023-03-18T02:32:06.202Z,11.90
2023-03-18T02:37:10.050Z,12.17
2023-03-18T02:42:14.569Z,13.83
2023-03-18T02:47:22.874Z,12.40
2023-03-18T02:52:26.789Z,10.00
2023-03-18T02:57:29.757Z,14.13
2023-03-18T03:02:32.909Z,10.43
2023-03-18T03:07:35.934Z,9.93
2023-03-18T03:12:39.867Z,12.57
2023-03-18T03:17:42.795Z,13.23
2023-03-18T03:22:46.290Z,11.47
2023-03-18T03:27:49.879Z,10.73
2023-03-18T03:32:52.895Z,11.47
2023-03-18T03:37:55.797Z,11.23
2023-03-18T03:42:59.006Z,12.57
2023-03-18T03:48:02.332Z,10.80
2023-03-18T03:53:06.816Z,12.83
2023-03-18T03:58:10.639Z,10.77
2023-03-18T04:03:13.677Z,11.87
2023-03-18T04:08:17.996Z,10.47
2023-03-18T04:13:20.755Z,11.47
2023-03-18T04:18:23.686Z,11.47
2023-03-18T04:23:26.908Z,11.50
2023-03-18T04:28:30.222Z,11.80
2023-03-18T04:33:33.732Z,10.10
2023-03-18T04:38:37.322Z,11.37
2023-03-18T04:43:40.054Z,11.27
2023-03-18T04:48:43.632Z,16.23
2023-03-18T04:53:46.611Z,11.43
2023-03-18T04:58:49.899Z,12.00
2023-03-18T05:03:52.807Z,11.53
2023-03-18T05:08:57.113Z,15.43
2023-03-18T05:14:00.170Z,11.27
2023-03-18T05:19:03.597Z,16.33
2023-03-18T05:24:06.918Z,16.93
2023-03-18T05:29:09.944Z,13.87
2023-03-18T05:34:13.609Z,13.50
2023-03-18T05:39:16.922Z,16.37
2023-03-18T05:44:19.993Z,9.90
2023-03-18T05:49:23.714Z,11.20
2023-03-18T05:54:27.080Z,9.47
2023-03-18T05:59:31.616Z,10.27
2023-03-18T06:04:34.606Z,14.27
2023-03-18T06:09:37.718Z,8.93
2023-03-18T06:14:40.606Z,8.03
2023-03-18T06:19:45.079Z,8.37
2023-03-18T06:24:48.530Z,11.63
2023-03-18T06:29:51.749Z,10.87
2023-03-18T06:34:54.668Z,13.73
2023-03-18T06:39:58.661Z,18.23
2023-03-18T06:45:01.824Z,22.83
2023-03-18T06:50:05.900Z,13.83
2023-03-18T06:55:09.505Z,12.10
2023-03-18T07:00:13.293Z,11.73
2023-03-18T07:05:17.240Z,12.17
2023-03-18T07:10:33.016Z,12.70
2023-03-18T07:15:36.363Z,11.00
2023-03-18T07:20:40.267Z,13.63
2023-03-18T07:25:44.785Z,12.97
2023-03-18T07:30:48.158Z,12.60
2023-03-18T07:35:51.643Z,13.57
2023-03-18T07:40:54.580Z,11.50
2023-03-18T07:45:58.710Z,13.30
2023-03-18T07:51:02.766Z,10.80
2023-03-18T07:56:07.328Z,10.23
2023-03-18T08:01:10.414Z,10.03
2023-03-18T08:06:15.525Z,9.13
2023-03-18T08:11:18.738Z,11.27
2023-03-18T08:16:21.773Z,11.30
2023-03-18T08:21:24.803Z,11.80
2023-03-18T08:26:27.955Z,9.30
2023-03-18T08:31:31.172Z,11.30
2023-03-18T08:36:35.221Z,11.13
2023-03-18T08:41:38.808Z,10.57
2023-03-18T08:46:41.912Z,6.73
2023-03-18T08:51:45.116Z,7.97
2023-03-18T08:56:48.060Z,6.25
2023-03-18T09:01:51.604Z,7.28
2023-03-18T09:06:54.683Z,10.27
2023-03-18T09:11:57.686Z,9.57
2023-03-18T09:17:01.158Z,11.63
2023-03-18T09:22:04.623Z,6.43
2023-03-18T09:27:07.650Z,6.75
2023-03-18T09:32:11.272Z,7.28
2023-03-18T09:37:14.989Z,5.18
2023-03-18T09:43:02.514Z,7.95
2023-03-18T09:48:43.481Z,5.57
2023-03-18T09:53:59.587Z,5.22
2023-03-18T09:59:28.726Z,5.85
2023-03-18T10:04:49.433Z,4.80
2023-03-18T10:10:22.627Z,5.85
2023-03-18T10:15:41.581Z,6.00
2023-03-18T10:21:24.774Z,5.60
2023-03-18T10:26:58.073Z,5.93
2023-03-18T10:32:21.614Z,5.88
2023-03-18T10:37:39.384Z,9.60
2023-03-18T10:42:44.107Z,7.63
2023-03-18T10:48:11.006Z,5.75
2023-03-18T10:53:55.689Z,5.35
2023-03-18T10:58:59.139Z,6.22
2023-03-18T11:04:06.977Z,6.22
2023-03-18T11:09:15.927Z,7.80
2023-03-18T11:14:28.908Z,6.60
2023-03-18T11:19:47.856Z,8.57
2023-03-18T11:25:11.668Z,5.70
2023-03-18T11:30:41.063Z,5.30
2023-03-18T11:35:52.007Z,8.40
2023-03-18T11:41:17.622Z,7.65
2023-03-18T11:46:27.633Z,6.90
2023-03-18T11:51:55.234Z,7.47
2023-03-18T11:57:45.289Z,5.82
2023-03-18T12:03:17.052Z,6.73
2023-03-18T12:08:57.072Z,6.18
2023-03-18T12:14:23.486Z,6.57
2023-03-18T12:20:10.176Z,7.72
2023-03-18T12:25:52.695Z,7.82
2023-03-18T12:31:22.970Z,10.13
2023-03-18T12:36:56.250Z,6.20
2023-03-18T12:42:09.228Z,7.18
2023-03-18T12:47:42.201Z,7.57
2023-03-18T12:53:22.935Z,7.35
2023-03-18T12:58:37.902Z,6.00
2023-03-18T13:03:44.785Z,7.55
2023-03-18T13:09:13.094Z,9.35
2023-03-18T13:14:41.198Z,9.98
2023-03-18T13:19:45.150Z,7.05
2023-03-18T13:25:13.814Z,10.63
2023-03-18T13:30:48.674Z,7.65
2023-03-18T13:36:22.827Z,8.15
2023-03-18T13:41:58.079Z,9.48
2023-03-18T13:47:09.123Z,8.68
2023-03-18T13:52:43.947Z,9.30
2023-03-18T13:58:06.610Z,8.30
2023-03-18T14:03:30.116Z,7.95
2023-03-18T14:08:39.305Z,8.68
2023-03-18T14:14:06.087Z,8.65
2023-03-18T14:19:28.723Z,8.35
2023-03-18T14:24:32.168Z,7.93
2023-03-18T14:29:42.356Z,6.30
2023-03-18T14:34:59.011Z,7.88
2023-03-18T14:40:16.286Z,17.58
2023-03-18T14:45:33.604Z,8.75
2023-03-18T14:50:47.566Z,6.63
2023-03-18T14:55:57.249Z,6.97
2023-03-18T15:01:12.297Z,6.55
2023-03-18T15:06:21.972Z,7.25
2023-03-18T15:11:25.576Z,5.77
2023-03-18T15:16:33.176Z,6.05
2023-03-18T15:21:37.601Z,7.22
2023-03-18T15:26:42.508Z,6.35
2023-03-18T15:31:45.779Z,4.70
2023-03-18T15:37:01.013Z,5.03
2023-03-18T15:42:15.555Z,5.07
2023-03-18T15:47:32.224Z,9.20
2023-03-18T15:52:41.896Z,6.00
2023-03-18T15:57:45.102Z,9.57
2023-03-18T16:02:48.809Z,17.07
2023-03-18T16:07:53.071Z,10.90
2023-03-18T16:13:01.941Z,10.80
2023-03-18T16:18:04.956Z,13.03
2023-03-18T16:23:08.145Z,16.43
2023-03-18T16:28:22.568Z,21.97
2023-03-18T16:33:26.224Z,25.73
2023-03-18T16:38:31.110Z,27.57
2023-03-18T16:43:33.995Z,32.03
2023-03-18T16:48:36.862Z,33.17
2023-03-18T16:53:40.345Z,25.73
2023-03-18T16:58:44.777Z,23.83
2023-03-18T17:03:48.163Z,17.37
2023-03-18T17:08:52.552Z,14.13
2023-03-18T17:13:56.453Z,16.77
2023-03-18T17:18:59.596Z,17.33
2023-03-18T17:24:03.705Z,19.07
2023-03-18T17:29:08.079Z,30.17
2023-03-18T17:34:14.060Z,23.83
2023-03-18T17:39:17.709Z,22.40
2023-03-18T17:44:30.185Z,20.47
2023-03-18T17:49:33.176Z,24.47
2023-03-18T17:54:36.607Z,28.93
2023-03-18T17:59:39.582Z,35.73
2023-03-18T18:04:43.463Z,26.50
2023-03-18T18:09:47.344Z,34.20
2023-03-18T18:14:50.743Z,33.83
2023-03-18T18:19:54.732Z,23.40
2023-03-18T18:24:58.112Z,14.03
2023-03-18T18:30:00.938Z,22.83
2023-03-18T18:35:04.556Z,40.73
2023-03-18T18:40:10.708Z,67.67
2023-03-18T18:45:19.164Z,38.50
2023-03-18T18:50:32.279Z,61.47
2023-03-18T18:55:36.077Z,36.70
2023-03-18T19:00:39.153Z,28.30
2023-03-18T19:05:43.931Z,27.77
2023-03-18T19:10:47.011Z,19.20
2023-03-18T19:15:55.987Z,16.20
2023-03-18T19:20:58.955Z,104.10
2023-03-18T19:26:06.378Z,36.73
2023-03-18T19:31:13.852Z,31.87
2023-03-18T19:36:27.205Z,24.00
2023-03-18T19:41:30.723Z,46.60
2023-03-18T19:46:39.231Z,31.67
2023-03-18T19:51:42.641Z,26.33
2023-03-18T19:56:46.241Z,19.93
2023-03-18T20:01:50.557Z,22.83
2023-03-18T20:06:54.857Z,27.53
2023-03-18T20:12:04.526Z,30.93
2023-03-18T20:17:42.345Z,26.13
2023-03-18T20:22:59.441Z,26.77
2023-03-18T20:28:07.524Z,22.30
2023-03-18T20:33:10.615Z,22.53
2023-03-18T20:38:39.265Z,18.20
2023-03-18T20:43:42.751Z,15.57
2023-03-18T20:48:46.158Z,14.73
2023-03-18T20:53:50.349Z,25.60
2023-03-18T20:58:53.732Z,22.97
2023-03-18T21:04:01.752Z,19.47
2023-03-18T21:09:05.277Z,20.37
2023-03-18T21:14:14.729Z,26.40
2023-03-18T21:19:17.673Z,22.53
2023-03-18T21:24:27.675Z,23.03
2023-03-18T21:29:30.708Z,26.13
2023-03-18T21:34:33.823Z,23.57
2023-03-18T21:39:36.889Z,19.37
2023-03-18T21:44:39.956Z,20.03
2023-03-18T21:49:44.134Z,20.60
2023-03-18T21:54:47.422Z,21.90
2023-03-18T21:59:52.557Z,22.60
2023-03-18T22:04:59.257Z,34.27
2023-03-18T22:10:02.406Z,25.50
2023-03-18T22:15:36.778Z,23.87
2023-03-18T22:20:41.095Z,24.53
2023-03-18T22:25:47.337Z,19.57
2023-03-18T22:30:52.840Z,23.53
2023-03-18T22:35:56.498Z,35.57
2023-03-18T22:40:59.463Z,46.07
2023-03-18T22:46:06.613Z,53.13
2023-03-18T22:51:27.771Z,43.03
2023-03-18T22:56:32.419Z,35.97
2023-03-18T23:01:37.419Z,31.73
2023-03-18T23:06:41.738Z,28.80
2023-03-18T23:11:46.761Z,27.33
2023-03-18T23:16:49.726Z,27.77
2023-03-18T23:21:52.648Z,22.90
2023-03-18T23:26:55.604Z,33.87
2023-03-18T23:31:58.853Z,26.67
2023-03-18T23:37:02.701Z,20.27
2023-03-18T23:42:06.248Z,23.67
2023-03-18T23:47:11.158Z,19.93
2023-03-18T23:52:15.823Z,23.90
2023-03-18T23:57:18.791Z,23.23
